sensor_id;sensor_type;location;lat;lon;timestamp;P1;durP1;ratioP1;P2;durP2;ratioP2
21890;SDS011;11110;52.386;16.940;2022-11-24T00:01:25;86.13;;;30.67;;
21890;SDS011;11110;52.386;16.940;2022-11-24T00:03:55;80.90;;;29.07;;
21890;SDS011;11110;52.386;16.940;2022-11-24T00:06:25;82.43;;;28.67;;
21890;SDS011;11110;52.386;16.940;2022-11-24T00:08:55;91.83;;;28.13;;
21890;SDS011;11110;52.386;16.940;2022-11-24T00:11:25;83.30;;;29.20;;
21890;SDS011;11110;52.386;16.940;2022-11-24T00:13:54;72.43;;;27.30;;
21890;SDS011;11110;52.386;16.940;2022-11-24T00:16:24;67.53;;;25.90;;
21890;SDS011;11110;52.386;16.940;2022-11-24T00:18:54;71.53;;;25.90;;
21890;SDS011;11110;52.386;16.940;2022-11-24T00:21:24;76.57;;;27.23;;
21890;SDS011;11110;52.386;16.940;2022-11-24T00:23:55;78.07;;;28.00;;
21890;SDS011;11110;52.386;16.940;2022-11-24T00:26:24;77.20;;;27.17;;
21890;SDS011;11110;52.386;16.940;2022-11-24T00:28:55;79.80;;;28.30;;
21890;SDS011;11110;52.386;16.940;2022-11-24T00:31:24;79.43;;;28.50;;
21890;SDS011;11110;52.386;16.940;2022-11-24T00:33:55;81.37;;;28.63;;
21890;SDS011;11110;52.386;16.940;2022-11-24T00:36:25;79.47;;;26.70;;
21890;SDS011;11110;52.386;16.940;2022-11-24T00:38:57;81.60;;;29.00;;
21890;SDS011;11110;52.386;16.940;2022-11-24T00:41:27;70.40;;;28.37;;
21890;SDS011;11110;52.386;16.940;2022-11-24T00:43:56;82.00;;;30.23;;
21890;SDS011;11110;52.386;16.940;2022-11-24T00:46:25;89.10;;;29.03;;
21890;SDS011;11110;52.386;16.940;2022-11-24T00:48:54;79.80;;;29.67;;
21890;SDS011;11110;52.386;16.940;2022-11-24T00:51:23;86.30;;;30.10;;
21890;SDS011;11110;52.386;16.940;2022-11-24T00:53:54;91.73;;;30.93;;
21890;SDS011;11110;52.386;16.940;2022-11-24T00:56:24;69.90;;;27.70;;
21890;SDS011;11110;52.386;16.940;2022-11-24T00:58:53;86.07;;;29.33;;
21890;SDS011;11110;52.386;16.940;2022-11-24T01:01:22;81.43;;;29.33;;
21890;SDS011;11110;52.386;16.940;2022-11-24T01:03:52;79.87;;;29.13;;
21890;SDS011;11110;52.386;16.940;2022-11-24T01:06:22;85.80;;;29.60;;
21890;SDS011;11110;52.386;16.940;2022-11-24T01:08:51;85.87;;;31.20;;
21890;SDS011;11110;52.386;16.940;2022-11-24T01:11:20;84.33;;;29.10;;
21890;SDS011;11110;52.386;16.940;2022-11-24T01:13:52;73.50;;;27.40;;
21890;SDS011;11110;52.386;16.940;2022-11-24T01:16:23;74.20;;;27.63;;
21890;SDS011;11110;52.386;16.940;2022-11-24T01:18:54;91.87;;;30.73;;
21890;SDS011;11110;52.386;16.940;2022-11-24T01:21:23;81.97;;;28.67;;
21890;SDS011;11110;52.386;16.940;2022-11-24T01:23:51;85.50;;;28.90;;
21890;SDS011;11110;52.386;16.940;2022-11-24T01:26:20;87.30;;;28.50;;
21890;SDS011;11110;52.386;16.940;2022-11-24T01:28:52;77.83;;;28.07;;
21890;SDS011;11110;52.386;16.940;2022-11-24T01:31:21;80.17;;;28.27;;
21890;SDS011;11110;52.386;16.940;2022-11-24T01:33:50;77.63;;;26.50;;
21890;SDS011;11110;52.386;16.940;2022-11-24T01:36:19;72.77;;;26.67;;
21890;SDS011;11110;52.386;16.940;2022-11-24T01:38:48;86.47;;;27.87;;
21890;SDS011;11110;52.386;16.940;2022-11-24T01:41:17;81.17;;;28.93;;
21890;SDS011;11110;52.386;16.940;2022-11-24T01:43:47;73.37;;;27.37;;
21890;SDS011;11110;52.386;16.940;2022-11-24T01:46:18;71.97;;;25.97;;
21890;SDS011;11110;52.386;16.940;2022-11-24T01:48:51;84.93;;;27.33;;
21890;SDS011;11110;52.386;16.940;2022-11-24T01:51:25;85.80;;;29.57;;
21890;SDS011;11110;52.386;16.940;2022-11-24T01:53:56;86.87;;;28.50;;
21890;SDS011;11110;52.386;16.940;2022-11-24T01:56:27;80.43;;;28.70;;
21890;SDS011;11110;52.386;16.940;2022-11-24T01:58:57;82.83;;;28.03;;
21890;SDS011;11110;52.386;16.940;2022-11-24T02:01:28;89.23;;;29.90;;
21890;SDS011;11110;52.386;16.940;2022-11-24T02:03:58;80.27;;;27.30;;
21890;SDS011;11110;52.386;16.940;2022-11-24T02:06:28;88.13;;;30.57;;
21890;SDS011;11110;52.386;16.940;2022-11-24T02:08:59;90.07;;;30.20;;
21890;SDS011;11110;52.386;16.940;2022-11-24T02:11:32;95.87;;;29.80;;
21890;SDS011;11110;52.386;16.940;2022-11-24T02:14:04;79.30;;;28.10;;
21890;SDS011;11110;52.386;16.940;2022-11-24T02:16:35;93.10;;;30.67;;
21890;SDS011;11110;52.386;16.940;2022-11-24T02:19:06;84.30;;;29.80;;
21890;SDS011;11110;52.386;16.940;2022-11-24T02:21:40;86.47;;;28.73;;
21890;SDS011;11110;52.386;16.940;2022-11-24T02:24:10;80.60;;;30.20;;
21890;SDS011;11110;52.386;16.940;2022-11-24T02:26:47;85.03;;;30.43;;
21890;SDS011;11110;52.386;16.940;2022-11-24T02:29:18;79.10;;;29.33;;
21890;SDS011;11110;52.386;16.940;2022-11-24T02:31:47;81.73;;;29.37;;
21890;SDS011;11110;52.386;16.940;2022-11-24T02:34:17;83.13;;;28.67;;
21890;SDS011;11110;52.386;16.940;2022-11-24T02:36:46;77.27;;;27.50;;
21890;SDS011;11110;52.386;16.940;2022-11-24T02:39:14;81.93;;;29.63;;
21890;SDS011;11110;52.386;16.940;2022-11-24T02:41:43;76.63;;;28.87;;
21890;SDS011;11110;52.386;16.940;2022-11-24T02:44:17;87.63;;;29.47;;
21890;SDS011;11110;52.386;16.940;2022-11-24T02:46:48;86.10;;;29.77;;
21890;SDS011;11110;52.386;16.940;2022-11-24T02:49:17;74.63;;;28.40;;
21890;SDS011;11110;52.386;16.940;2022-11-24T02:51:45;83.00;;;29.43;;
21890;SDS011;11110;52.386;16.940;2022-11-24T02:54:13;89.23;;;30.17;;
21890;SDS011;11110;52.386;16.940;2022-11-24T02:56:41;93.63;;;29.53;;
21890;SDS011;11110;52.386;16.940;2022-11-24T02:59:11;87.07;;;30.17;;
21890;SDS011;11110;52.386;16.940;2022-11-24T03:01:39;96.30;;;30.87;;
21890;SDS011;11110;52.386;16.940;2022-11-24T03:04:08;75.43;;;28.43;;
21890;SDS011;11110;52.386;16.940;2022-11-24T03:06:36;98.70;;;32.57;;
21890;SDS011;11110;52.386;16.940;2022-11-24T03:09:04;92.53;;;31.87;;
21890;SDS011;11110;52.386;16.940;2022-11-24T03:11:33;91.30;;;29.57;;
21890;SDS011;11110;52.386;16.940;2022-11-24T03:14:01;90.07;;;30.70;;
21890;SDS011;11110;52.386;16.940;2022-11-24T03:16:31;93.30;;;31.17;;
21890;SDS011;11110;52.386;16.940;2022-11-24T03:19:00;90.40;;;31.77;;
21890;SDS011;11110;52.386;16.940;2022-11-24T03:21:28;87.67;;;30.27;;
21890;SDS011;11110;52.386;16.940;2022-11-24T03:23:56;95.90;;;32.60;;
21890;SDS011;11110;52.386;16.940;2022-11-24T03:26:25;97.63;;;30.90;;
21890;SDS011;11110;52.386;16.940;2022-11-24T03:28:54;93.70;;;31.37;;
21890;SDS011;11110;52.386;16.940;2022-11-24T03:31:23;93.53;;;29.67;;
21890;SDS011;11110;52.386;16.940;2022-11-24T03:33:53;91.53;;;30.13;;
21890;SDS011;11110;52.386;16.940;2022-11-24T03:36:21;100.70;;;31.63;;
21890;SDS011;11110;52.386;16.940;2022-11-24T03:38:50;100.97;;;32.77;;
21890;SDS011;11110;52.386;16.940;2022-11-24T03:41:18;95.57;;;31.10;;
21890;SDS011;11110;52.386;16.940;2022-11-24T03:43:47;96.80;;;30.73;;
21890;SDS011;11110;52.386;16.940;2022-11-24T03:46:15;94.37;;;30.83;;
21890;SDS011;11110;52.386;16.940;2022-11-24T03:48:44;97.33;;;33.80;;
21890;SDS011;11110;52.386;16.940;2022-11-24T03:51:13;90.03;;;32.00;;
21890;SDS011;11110;52.386;16.940;2022-11-24T03:53:42;99.57;;;32.00;;
21890;SDS011;11110;52.386;16.940;2022-11-24T03:56:10;94.93;;;32.87;;
21890;SDS011;11110;52.386;16.940;2022-11-24T03:58:38;95.97;;;30.60;;
21890;SDS011;11110;52.386;16.940;2022-11-24T04:01:06;98.63;;;31.37;;
21890;SDS011;11110;52.386;16.940;2022-11-24T04:03:34;94.93;;;32.20;;
21890;SDS011;11110;52.386;16.940;2022-11-24T04:06:02;94.53;;;32.33;;
21890;SDS011;11110;52.386;16.940;2022-11-24T04:08:32;107.27;;;33.23;;
21890;SDS011;11110;52.386;16.940;2022-11-24T04:11:00;92.03;;;30.97;;
21890;SDS011;11110;52.386;16.940;2022-11-24T04:13:29;87.03;;;28.57;;
21890;SDS011;11110;52.386;16.940;2022-11-24T04:15:56;96.70;;;32.03;;
21890;SDS011;11110;52.386;16.940;2022-11-24T04:18:25;76.93;;;28.23;;
21890;SDS011;11110;52.386;16.940;2022-11-24T04:20:53;85.97;;;28.67;;
21890;SDS011;11110;52.386;16.940;2022-11-24T04:23:21;74.97;;;27.50;;
21890;SDS011;11110;52.386;16.940;2022-11-24T04:25:51;74.30;;;26.20;;
21890;SDS011;11110;52.386;16.940;2022-11-24T04:28:19;73.43;;;26.53;;
21890;SDS011;11110;52.386;16.940;2022-11-24T04:30:47;70.70;;;26.67;;
21890;SDS011;11110;52.386;16.940;2022-11-24T04:33:16;76.60;;;27.40;;
21890;SDS011;11110;52.386;16.940;2022-11-24T04:35:44;77.23;;;27.13;;
21890;SDS011;11110;52.386;16.940;2022-11-24T04:38:12;68.60;;;26.53;;
21890;SDS011;11110;52.386;16.940;2022-11-24T04:41:02;86.00;;;29.13;;
21890;SDS011;11110;52.386;16.940;2022-11-24T04:43:31;83.63;;;28.47;;
21890;SDS011;11110;52.386;16.940;2022-11-24T04:46:07;71.07;;;24.97;;
21890;SDS011;11110;52.386;16.940;2022-11-24T04:48:37;78.30;;;27.80;;
21890;SDS011;11110;52.386;16.940;2022-11-24T04:51:06;82.43;;;27.37;;
21890;SDS011;11110;52.386;16.940;2022-11-24T04:53:34;88.07;;;28.13;;
21890;SDS011;11110;52.386;16.940;2022-11-24T04:56:04;75.73;;;28.20;;
21890;SDS011;11110;52.386;16.940;2022-11-24T04:58:33;76.93;;;28.00;;
21890;SDS011;11110;52.386;16.940;2022-11-24T05:01:05;80.70;;;26.83;;
21890;SDS011;11110;52.386;16.940;2022-11-24T05:03:34;71.77;;;26.13;;
21890;SDS011;11110;52.386;16.940;2022-11-24T05:06:03;82.20;;;28.10;;
21890;SDS011;11110;52.386;16.940;2022-11-24T05:08:32;78.40;;;26.33;;
21890;SDS011;11110;52.386;16.940;2022-11-24T05:11:02;76.30;;;27.37;;
21890;SDS011;11110;52.386;16.940;2022-11-24T05:13:33;87.70;;;29.97;;
21890;SDS011;11110;52.386;16.940;2022-11-24T05:16:01;82.03;;;28.63;;
21890;SDS011;11110;52.386;16.940;2022-11-24T05:18:30;83.53;;;29.30;;
21890;SDS011;11110;52.386;16.940;2022-11-24T05:20:58;102.83;;;34.43;;
21890;SDS011;11110;52.386;16.940;2022-11-24T05:23:27;104.80;;;31.40;;
21890;SDS011;11110;52.386;16.940;2022-11-24T05:25:57;102.73;;;31.67;;
21890;SDS011;11110;52.386;16.940;2022-11-24T05:28:28;100.10;;;33.17;;
21890;SDS011;11110;52.386;16.940;2022-11-24T05:30:57;100.23;;;32.13;;
21890;SDS011;11110;52.386;16.940;2022-11-24T05:33:27;95.63;;;32.60;;
21890;SDS011;11110;52.386;16.940;2022-11-24T05:35:59;99.83;;;31.63;;
21890;SDS011;11110;52.386;16.940;2022-11-24T05:38:28;106.20;;;30.43;;
21890;SDS011;11110;52.386;16.940;2022-11-24T05:40:58;93.53;;;30.90;;
21890;SDS011;11110;52.386;16.940;2022-11-24T05:43:29;94.27;;;30.20;;
21890;SDS011;11110;52.386;16.940;2022-11-24T05:45:58;104.63;;;31.97;;
21890;SDS011;11110;52.386;16.940;2022-11-24T05:48:27;95.53;;;29.87;;
21890;SDS011;11110;52.386;16.940;2022-11-24T05:50:56;102.03;;;32.23;;
21890;SDS011;11110;52.386;16.940;2022-11-24T05:53:25;97.37;;;31.37;;
21890;SDS011;11110;52.386;16.940;2022-11-24T05:55:53;87.97;;;29.30;;
21890;SDS011;11110;52.386;16.940;2022-11-24T05:58:22;95.17;;;30.43;;
21890;SDS011;11110;52.386;16.940;2022-11-24T06:00:52;106.57;;;31.07;;
21890;SDS011;11110;52.386;16.940;2022-11-24T06:03:20;88.97;;;30.30;;
21890;SDS011;11110;52.386;16.940;2022-11-24T06:05:49;97.33;;;30.30;;
21890;SDS011;11110;52.386;16.940;2022-11-24T06:08:17;99.90;;;31.60;;
21890;SDS011;11110;52.386;16.940;2022-11-24T06:10:45;98.23;;;30.47;;
21890;SDS011;11110;52.386;16.940;2022-11-24T06:13:14;85.53;;;30.17;;
21890;SDS011;11110;52.386;16.940;2022-11-24T06:15:42;87.83;;;29.30;;
21890;SDS011;11110;52.386;16.940;2022-11-24T06:18:12;99.60;;;29.63;;
21890;SDS011;11110;52.386;16.940;2022-11-24T06:20:40;79.80;;;26.23;;
21890;SDS011;11110;52.386;16.940;2022-11-24T06:23:28;95.10;;;29.70;;
21890;SDS011;11110;52.386;16.940;2022-11-24T06:25:57;97.60;;;29.67;;
21890;SDS011;11110;52.386;16.940;2022-11-24T06:28:25;101.43;;;30.70;;
21890;SDS011;11110;52.386;16.940;2022-11-24T06:30:54;88.30;;;29.13;;
21890;SDS011;11110;52.386;16.940;2022-11-24T06:33:30;85.73;;;28.70;;
21890;SDS011;11110;52.386;16.940;2022-11-24T06:36:00;95.87;;;30.57;;
21890;SDS011;11110;52.386;16.940;2022-11-24T06:38:29;85.20;;;29.83;;
21890;SDS011;11110;52.386;16.940;2022-11-24T06:40:59;90.60;;;29.17;;
21890;SDS011;11110;52.386;16.940;2022-11-24T06:43:28;97.33;;;30.90;;
21890;SDS011;11110;52.386;16.940;2022-11-24T06:45:57;78.50;;;28.00;;
21890;SDS011;11110;52.386;16.940;2022-11-24T06:48:26;92.20;;;29.13;;
21890;SDS011;11110;52.386;16.940;2022-11-24T06:50:58;93.40;;;28.63;;
21890;SDS011;11110;52.386;16.940;2022-11-24T06:53:28;76.33;;;27.50;;
21890;SDS011;11110;52.386;16.940;2022-11-24T06:55:57;75.73;;;27.80;;
21890;SDS011;11110;52.386;16.940;2022-11-24T06:58:26;93.47;;;28.33;;
21890;SDS011;11110;52.386;16.940;2022-11-24T07:00:55;83.90;;;28.50;;
21890;SDS011;11110;52.386;16.940;2022-11-24T07:03:23;84.90;;;29.03;;
21890;SDS011;11110;52.386;16.940;2022-11-24T07:05:54;78.57;;;25.17;;
21890;SDS011;11110;52.386;16.940;2022-11-24T07:08:25;86.43;;;27.43;;
21890;SDS011;11110;52.386;16.940;2022-11-24T07:10:54;74.00;;;25.70;;
21890;SDS011;11110;52.386;16.940;2022-11-24T07:13:23;89.17;;;27.67;;
21890;SDS011;11110;52.386;16.940;2022-11-24T07:15:51;73.63;;;26.33;;
21890;SDS011;11110;52.386;16.940;2022-11-24T07:18:19;76.17;;;25.67;;
21890;SDS011;11110;52.386;16.940;2022-11-24T07:20:47;81.50;;;25.50;;
21890;SDS011;11110;52.386;16.940;2022-11-24T07:23:16;67.70;;;23.97;;
21890;SDS011;11110;52.386;16.940;2022-11-24T07:25:45;76.77;;;25.73;;
21890;SDS011;11110;52.386;16.940;2022-11-24T07:28:14;73.37;;;25.23;;
21890;SDS011;11110;52.386;16.940;2022-11-24T07:30:42;71.03;;;24.73;;
21890;SDS011;11110;52.386;16.940;2022-11-24T07:33:10;74.40;;;24.80;;
21890;SDS011;11110;52.386;16.940;2022-11-24T07:35:38;75.03;;;25.23;;
21890;SDS011;11110;52.386;16.940;2022-11-24T07:38:07;74.90;;;25.93;;
21890;SDS011;11110;52.386;16.940;2022-11-24T07:40:35;80.43;;;27.20;;
21890;SDS011;11110;52.386;16.940;2022-11-24T07:43:04;78.70;;;26.43;;
21890;SDS011;11110;52.386;16.940;2022-11-24T07:45:34;84.23;;;26.63;;
21890;SDS011;11110;52.386;16.940;2022-11-24T07:48:02;83.50;;;27.30;;
21890;SDS011;11110;52.386;16.940;2022-11-24T07:50:30;79.63;;;26.17;;
21890;SDS011;11110;52.386;16.940;2022-11-24T07:53:00;80.33;;;27.07;;
21890;SDS011;11110;52.386;16.940;2022-11-24T07:55:28;83.77;;;27.37;;
21890;SDS011;11110;52.386;16.940;2022-11-24T07:58:00;91.13;;;28.10;;
21890;SDS011;11110;52.386;16.940;2022-11-24T08:00:29;93.50;;;29.77;;
21890;SDS011;11110;52.386;16.940;2022-11-24T08:02:58;84.37;;;26.80;;
21890;SDS011;11110;52.386;16.940;2022-11-24T08:05:26;83.07;;;28.30;;
21890;SDS011;11110;52.386;16.940;2022-11-24T08:07:54;77.67;;;27.00;;
21890;SDS011;11110;52.386;16.940;2022-11-24T08:10:23;84.67;;;28.63;;
21890;SDS011;11110;52.386;16.940;2022-11-24T08:12:51;94.27;;;29.90;;
21890;SDS011;11110;52.386;16.940;2022-11-24T08:15:19;87.67;;;28.97;;
21890;SDS011;11110;52.386;16.940;2022-11-24T08:17:49;82.17;;;28.30;;
21890;SDS011;11110;52.386;16.940;2022-11-24T08:20:17;92.87;;;29.20;;
21890;SDS011;11110;52.386;16.940;2022-11-24T08:22:46;76.30;;;27.07;;
21890;SDS011;11110;52.386;16.940;2022-11-24T08:25:14;79.97;;;27.63;;
21890;SDS011;11110;52.386;16.940;2022-11-24T08:27:44;82.20;;;27.03;;
21890;SDS011;11110;52.386;16.940;2022-11-24T08:30:12;91.63;;;30.00;;
21890;SDS011;11110;52.386;16.940;2022-11-24T08:32:41;83.93;;;29.83;;
21890;SDS011;11110;52.386;16.940;2022-11-24T08:35:10;84.87;;;28.33;;
21890;SDS011;11110;52.386;16.940;2022-11-24T08:37:42;88.83;;;29.47;;
21890;SDS011;11110;52.386;16.940;2022-11-24T08:40:11;78.40;;;27.70;;
21890;SDS011;11110;52.386;16.940;2022-11-24T08:42:40;85.07;;;28.60;;
21890;SDS011;11110;52.386;16.940;2022-11-24T08:45:08;72.63;;;26.67;;
21890;SDS011;11110;52.386;16.940;2022-11-24T08:47:50;76.97;;;27.07;;
21890;SDS011;11110;52.386;16.940;2022-11-24T08:50:20;85.47;;;28.07;;
21890;SDS011;11110;52.386;16.940;2022-11-24T08:52:50;79.83;;;26.97;;
21890;SDS011;11110;52.386;16.940;2022-11-24T08:55:18;87.97;;;27.80;;
21890;SDS011;11110;52.386;16.940;2022-11-24T08:57:47;78.27;;;26.07;;
21890;SDS011;11110;52.386;16.940;2022-11-24T09:00:15;78.37;;;25.53;;
21890;SDS011;11110;52.386;16.940;2022-11-24T09:02:52;84.03;;;26.60;;
21890;SDS011;11110;52.386;16.940;2022-11-24T09:05:23;80.43;;;26.23;;
21890;SDS011;11110;52.386;16.940;2022-11-24T09:08:12;75.47;;;26.37;;
21890;SDS011;11110;52.386;16.940;2022-11-24T09:10:40;84.13;;;25.90;;
21890;SDS011;11110;52.386;16.940;2022-11-24T09:13:09;77.43;;;25.63;;
21890;SDS011;11110;52.386;16.940;2022-11-24T09:15:37;73.73;;;26.70;;
21890;SDS011;11110;52.386;16.940;2022-11-24T09:18:06;78.90;;;26.27;;
21890;SDS011;11110;52.386;16.940;2022-11-24T09:20:35;73.87;;;25.73;;
21890;SDS011;11110;52.386;16.940;2022-11-24T09:23:04;73.67;;;25.83;;
21890;SDS011;11110;52.386;16.940;2022-11-24T09:25:32;88.20;;;25.63;;
21890;SDS011;11110;52.386;16.940;2022-11-24T09:28:01;75.00;;;26.23;;
21890;SDS011;11110;52.386;16.940;2022-11-24T09:30:29;74.10;;;26.40;;
21890;SDS011;11110;52.386;16.940;2022-11-24T09:32:57;85.83;;;27.57;;
21890;SDS011;11110;52.386;16.940;2022-11-24T09:35:25;77.60;;;26.43;;
21890;SDS011;11110;52.386;16.940;2022-11-24T09:37:55;80.60;;;27.10;;
21890;SDS011;11110;52.386;16.940;2022-11-24T09:40:23;79.50;;;28.47;;
21890;SDS011;11110;52.386;16.940;2022-11-24T09:42:54;81.37;;;27.27;;
21890;SDS011;11110;52.386;16.940;2022-11-24T09:45:32;83.03;;;28.10;;
21890;SDS011;11110;52.386;16.940;2022-11-24T09:48:29;76.10;;;26.23;;
21890;SDS011;11110;52.386;16.940;2022-11-24T09:51:02;91.57;;;30.40;;
21890;SDS011;11110;52.386;16.940;2022-11-24T09:53:34;85.17;;;28.00;;
21890;SDS011;11110;52.386;16.940;2022-11-24T09:56:13;92.77;;;30.60;;
21890;SDS011;11110;52.386;16.940;2022-11-24T09:58:47;82.70;;;27.77;;
21890;SDS011;11110;52.386;16.940;2022-11-24T10:01:18;83.67;;;27.87;;
21890;SDS011;11110;52.386;16.940;2022-11-24T10:03:49;83.97;;;28.50;;
21890;SDS011;11110;52.386;16.940;2022-11-24T10:06:20;85.20;;;28.23;;
21890;SDS011;11110;52.386;16.940;2022-11-24T10:09:05;90.60;;;28.77;;
21890;SDS011;11110;52.386;16.940;2022-11-24T10:11:42;83.47;;;29.67;;
21890;SDS011;11110;52.386;16.940;2022-11-24T10:14:21;81.63;;;28.63;;
21890;SDS011;11110;52.386;16.940;2022-11-24T10:17:10;89.60;;;29.80;;
21890;SDS011;11110;52.386;16.940;2022-11-24T10:19:48;86.97;;;28.60;;
21890;SDS011;11110;52.386;16.940;2022-11-24T10:22:26;84.20;;;30.07;;
21890;SDS011;11110;52.386;16.940;2022-11-24T10:25:08;94.50;;;30.57;;
21890;SDS011;11110;52.386;16.940;2022-11-24T10:27:42;87.60;;;29.33;;
21890;SDS011;11110;52.386;16.940;2022-11-24T10:30:15;84.57;;;30.33;;
21890;SDS011;11110;52.386;16.940;2022-11-24T10:32:45;90.40;;;30.30;;
21890;SDS011;11110;52.386;16.940;2022-11-24T10:35:17;89.53;;;28.70;;
21890;SDS011;11110;52.386;16.940;2022-11-24T10:37:50;79.60;;;28.50;;
21890;SDS011;11110;52.386;16.940;2022-11-24T10:40:27;78.40;;;27.63;;
21890;SDS011;11110;52.386;16.940;2022-11-24T10:43:24;85.97;;;29.27;;
21890;SDS011;11110;52.386;16.940;2022-11-24T10:45:54;90.93;;;29.80;;
21890;SDS011;11110;52.386;16.940;2022-11-24T10:48:36;105.30;;;31.57;;
21890;SDS011;11110;52.386;16.940;2022-11-24T10:51:28;91.33;;;30.00;;
21890;SDS011;11110;52.386;16.940;2022-11-24T10:54:04;89.40;;;30.70;;
21890;SDS011;11110;52.386;16.940;2022-11-24T10:56:39;99.30;;;32.03;;
21890;SDS011;11110;52.386;16.940;2022-11-24T11:07:58;104.43;;;34.77;;
21890;SDS011;11110;52.386;16.940;2022-11-24T11:10:41;98.83;;;32.93;;
21890;SDS011;11110;52.386;16.940;2022-11-24T11:13:22;103.30;;;34.17;;
21890;SDS011;11110;52.386;16.940;2022-11-24T11:15:52;101.57;;;33.67;;
21890;SDS011;11110;52.386;16.940;2022-11-24T11:18:21;113.33;;;35.47;;
21890;SDS011;11110;52.386;16.940;2022-11-24T11:20:56;98.37;;;31.53;;
21890;SDS011;11110;52.386;16.940;2022-11-24T11:23:28;112.17;;;36.20;;
21890;SDS011;11110;52.386;16.940;2022-11-24T11:26:17;106.97;;;35.10;;
21890;SDS011;11110;52.386;16.940;2022-11-24T11:28:58;99.33;;;32.83;;
21890;SDS011;11110;52.386;16.940;2022-11-24T11:31:56;102.17;;;32.60;;
21890;SDS011;11110;52.386;16.940;2022-11-24T11:34:46;102.20;;;32.60;;
21890;SDS011;11110;52.386;16.940;2022-11-24T11:37:16;101.73;;;33.33;;
21890;SDS011;11110;52.386;16.940;2022-11-24T11:39:47;94.80;;;34.67;;
21890;SDS011;11110;52.386;16.940;2022-11-24T11:42:17;109.57;;;34.43;;
21890;SDS011;11110;52.386;16.940;2022-11-24T11:45:14;110.30;;;34.57;;
21890;SDS011;11110;52.386;16.940;2022-11-24T11:47:45;95.13;;;33.10;;
21890;SDS011;11110;52.386;16.940;2022-11-24T11:50:21;100.17;;;34.70;;
21890;SDS011;11110;52.386;16.940;2022-11-24T11:53:03;102.53;;;33.83;;
21890;SDS011;11110;52.386;16.940;2022-11-24T11:55:49;101.53;;;35.37;;
21890;SDS011;11110;52.386;16.940;2022-11-24T12:01:21;98.90;;;33.67;;
21890;SDS011;11110;52.386;16.940;2022-11-24T12:04:15;94.93;;;33.10;;
21890;SDS011;11110;52.386;16.940;2022-11-24T12:07:05;104.77;;;35.13;;
21890;SDS011;11110;52.386;16.940;2022-11-24T12:09:47;99.17;;;33.10;;
21890;SDS011;11110;52.386;16.940;2022-11-24T12:12:28;97.03;;;33.33;;
21890;SDS011;11110;52.386;16.940;2022-11-24T12:15:15;109.73;;;37.10;;
21890;SDS011;11110;52.386;16.940;2022-11-24T12:17:51;109.03;;;35.67;;
21890;SDS011;11110;52.386;16.940;2022-11-24T12:20:30;109.20;;;35.87;;
21890;SDS011;11110;52.386;16.940;2022-11-24T12:23:11;103.97;;;34.70;;
21890;SDS011;11110;52.386;16.940;2022-11-24T12:25:46;110.73;;;34.47;;
21890;SDS011;11110;52.386;16.940;2022-11-24T12:28:24;113.90;;;38.83;;
21890;SDS011;11110;52.386;16.940;2022-11-24T12:31:03;103.23;;;35.40;;
21890;SDS011;11110;52.386;16.940;2022-11-24T12:33:37;93.40;;;33.97;;
21890;SDS011;11110;52.386;16.940;2022-11-24T12:36:31;115.03;;;35.23;;
21890;SDS011;11110;52.386;16.940;2022-11-24T12:39:22;118.90;;;38.23;;
21890;SDS011;11110;52.386;16.940;2022-11-24T12:41:59;123.77;;;36.00;;
21890;SDS011;11110;52.386;16.940;2022-11-24T12:44:45;111.80;;;35.57;;
21890;SDS011;11110;52.386;16.940;2022-11-24T12:47:27;106.17;;;35.87;;
21890;SDS011;11110;52.386;16.940;2022-11-24T12:50:08;114.73;;;36.63;;
21890;SDS011;11110;52.386;16.940;2022-11-24T12:52:40;113.83;;;36.03;;
21890;SDS011;11110;52.386;16.940;2022-11-24T12:55:21;110.40;;;36.93;;
21890;SDS011;11110;52.386;16.940;2022-11-24T12:57:52;115.03;;;37.87;;
21890;SDS011;11110;52.386;16.940;2022-11-24T13:00:27;115.20;;;36.73;;
21890;SDS011;11110;52.386;16.940;2022-11-24T13:03:04;122.20;;;39.53;;
21890;SDS011;11110;52.386;16.940;2022-11-24T13:05:44;118.97;;;37.57;;
21890;SDS011;11110;52.386;16.940;2022-11-24T13:08:18;105.60;;;35.03;;
21890;SDS011;11110;52.386;16.940;2022-11-24T13:10:47;124.03;;;38.60;;
21890;SDS011;11110;52.386;16.940;2022-11-24T13:13:25;115.00;;;39.20;;
21890;SDS011;11110;52.386;16.940;2022-11-24T13:16:05;115.20;;;37.13;;
21890;SDS011;11110;52.386;16.940;2022-11-24T13:19:01;112.67;;;36.30;;
21890;SDS011;11110;52.386;16.940;2022-11-24T13:21:46;111.93;;;37.20;;
21890;SDS011;11110;52.386;16.940;2022-11-24T13:24:21;112.57;;;38.50;;
21890;SDS011;11110;52.386;16.940;2022-11-24T13:26:53;115.70;;;38.10;;
21890;SDS011;11110;52.386;16.940;2022-11-24T13:29:32;115.43;;;39.23;;
21890;SDS011;11110;52.386;16.940;2022-11-24T13:35:16;113.20;;;38.80;;
21890;SDS011;11110;52.386;16.940;2022-11-24T13:37:47;123.90;;;40.47;;
21890;SDS011;11110;52.386;16.940;2022-11-24T13:40:36;123.17;;;39.77;;
21890;SDS011;11110;52.386;16.940;2022-11-24T13:43:30;127.20;;;39.70;;
21890;SDS011;11110;52.386;16.940;2022-11-24T13:45:58;121.23;;;39.93;;
21890;SDS011;11110;52.386;16.940;2022-11-24T13:51:21;123.10;;;36.30;;
21890;SDS011;11110;52.386;16.940;2022-11-24T13:53:53;129.27;;;40.57;;
21890;SDS011;11110;52.386;16.940;2022-11-24T13:56:27;125.57;;;38.23;;
21890;SDS011;11110;52.386;16.940;2022-11-24T13:58:58;123.13;;;38.10;;
21890;SDS011;11110;52.386;16.940;2022-11-24T14:01:29;114.23;;;37.43;;
21890;SDS011;11110;52.386;16.940;2022-11-24T14:04:00;123.83;;;38.07;;
21890;SDS011;11110;52.386;16.940;2022-11-24T14:06:56;115.53;;;37.90;;
21890;SDS011;11110;52.386;16.940;2022-11-24T14:09:35;119.77;;;40.20;;
21890;SDS011;11110;52.386;16.940;2022-11-24T14:12:12;105.07;;;36.60;;
21890;SDS011;11110;52.386;16.940;2022-11-24T14:14:43;117.17;;;38.53;;
21890;SDS011;11110;52.386;16.940;2022-11-24T14:17:17;117.77;;;39.67;;
21890;SDS011;11110;52.386;16.940;2022-11-24T14:19:47;122.50;;;39.17;;
21890;SDS011;11110;52.386;16.940;2022-11-24T14:22:18;116.00;;;39.63;;
21890;SDS011;11110;52.386;16.940;2022-11-24T14:24:56;113.07;;;39.00;;
21890;SDS011;11110;52.386;16.940;2022-11-24T14:27:27;113.57;;;38.40;;
21890;SDS011;11110;52.386;16.940;2022-11-24T14:29:57;116.80;;;39.73;;
21890;SDS011;11110;52.386;16.940;2022-11-24T14:32:27;127.93;;;41.73;;
21890;SDS011;11110;52.386;16.940;2022-11-24T14:34:55;126.97;;;41.63;;
21890;SDS011;11110;52.386;16.940;2022-11-24T14:37:24;114.80;;;37.40;;
21890;SDS011;11110;52.386;16.940;2022-11-24T14:39:52;111.53;;;37.03;;
21890;SDS011;11110;52.386;16.940;2022-11-24T14:42:23;118.03;;;39.53;;
21890;SDS011;11110;52.386;16.940;2022-11-24T14:44:54;113.43;;;38.30;;
21890;SDS011;11110;52.386;16.940;2022-11-24T14:47:26;121.43;;;38.90;;
21890;SDS011;11110;52.386;16.940;2022-11-24T14:50:05;127.87;;;41.20;;
21890;SDS011;11110;52.386;16.940;2022-11-24T14:52:42;112.77;;;38.20;;